sensor_id;sensor_type;location;lat;lon;timestamp;temperature;humidity
24618;DHT22;12762;51.730;5.356;2023-08-21T00:02:02;22.00;65.40
24618;DHT22;12762;51.730;5.356;2023-08-21T00:04:29;22.00;65.70
24618;DHT22;12762;51.730;5.356;2023-08-21T00:06:56;22.00;65.50
24618;DHT22;12762;51.730;5.356;2023-08-21T00:09:25;22.00;65.60
24618;DHT22;12762;51.730;5.356;2023-08-21T00:11:52;21.90;65.50
24618;DHT22;12762;51.730;5.356;2023-08-21T00:14:19;21.90;65.70
24618;DHT22;12762;51.730;5.356;2023-08-21T00:16:46;21.80;65.30
24618;DHT22;12762;51.730;5.356;2023-08-21T00:19:13;21.80;65.90
24618;DHT22;12762;51.730;5.356;2023-08-21T00:21:39;21.80;65.50
24618;DHT22;12762;51.730;5.356;2023-08-21T00:24:06;21.70;66.60
24618;DHT22;12762;51.730;5.356;2023-08-21T00:26:33;21.80;65.60
24618;DHT22;12762;51.730;5.356;2023-08-21T00:29:03;21.70;65.20
24618;DHT22;12762;51.730;5.356;2023-08-21T00:31:33;21.60;65.30
24618;DHT22;12762;51.730;5.356;2023-08-21T00:34:00;21.60;65.40
24618;DHT22;12762;51.730;5.356;2023-08-21T00:36:26;21.60;65.50
24618;DHT22;12762;51.730;5.356;2023-08-21T00:38:53;21.50;65.90
24618;DHT22;12762;51.730;5.356;2023-08-21T00:41:20;21.50;66.00
24618;DHT22;12762;51.730;5.356;2023-08-21T00:43:47;21.50;66.40
24618;DHT22;12762;51.730;5.356;2023-08-21T00:46:16;21.40;66.60
24618;DHT22;12762;51.730;5.356;2023-08-21T00:48:44;21.40;66.30
24618;DHT22;12762;51.730;5.356;2023-08-21T00:51:14;21.40;66.10
24618;DHT22;12762;51.730;5.356;2023-08-21T00:53:42;21.40;66.60
24618;DHT22;12762;51.730;5.356;2023-08-21T00:56:09;21.40;66.50
24618;DHT22;12762;51.730;5.356;2023-08-21T00:58:36;21.40;66.50
24618;DHT22;12762;51.730;5.356;2023-08-21T01:01:03;21.40;67.00
24618;DHT22;12762;51.730;5.356;2023-08-21T01:03:34;21.40;67.10
24618;DHT22;12762;51.730;5.356;2023-08-21T01:06:01;21.40;67.10
24618;DHT22;12762;51.730;5.356;2023-08-21T01:08:36;21.30;67.20
24618;DHT22;12762;51.730;5.356;2023-08-21T01:11:31;21.30;66.70
24618;DHT22;12762;51.730;5.356;2023-08-21T01:16:37;21.30;67.10
24618;DHT22;12762;51.730;5.356;2023-08-21T01:19:09;21.30;67.60
24618;DHT22;12762;51.730;5.356;2023-08-21T01:21:39;21.30;67.40
24618;DHT22;12762;51.730;5.356;2023-08-21T01:24:06;21.20;67.10
24618;DHT22;12762;51.730;5.356;2023-08-21T01:26:32;21.20;67.00
24618;DHT22;12762;51.730;5.356;2023-08-21T01:28:59;21.20;67.40
24618;DHT22;12762;51.730;5.356;2023-08-21T01:31:31;21.20;67.00
24618;DHT22;12762;51.730;5.356;2023-08-21T01:34:04;21.20;68.40
24618;DHT22;12762;51.730;5.356;2023-08-21T01:36:37;21.10;67.60
24618;DHT22;12762;51.730;5.356;2023-08-21T01:39:04;21.10;67.20
24618;DHT22;12762;51.730;5.356;2023-08-21T01:41:31;21.10;67.10
24618;DHT22;12762;51.730;5.356;2023-08-21T01:43:58;21.00;66.50
24618;DHT22;12762;51.730;5.356;2023-08-21T01:46:24;21.00;67.20
24618;DHT22;12762;51.730;5.356;2023-08-21T01:48:51;20.90;67.10
24618;DHT22;12762;51.730;5.356;2023-08-21T01:51:18;20.90;67.50
24618;DHT22;12762;51.730;5.356;2023-08-21T01:53:45;20.90;67.90
24618;DHT22;12762;51.730;5.356;2023-08-21T01:56:12;20.90;67.90
24618;DHT22;12762;51.730;5.356;2023-08-21T01:58:38;20.90;68.30
24618;DHT22;12762;51.730;5.356;2023-08-21T02:01:05;20.90;68.60
24618;DHT22;12762;51.730;5.356;2023-08-21T02:03:32;20.90;68.60
24618;DHT22;12762;51.730;5.356;2023-08-21T02:05:59;20.80;68.20
24618;DHT22;12762;51.730;5.356;2023-08-21T02:08:33;20.80;68.10
24618;DHT22;12762;51.730;5.356;2023-08-21T02:11:00;20.80;68.10
24618;DHT22;12762;51.730;5.356;2023-08-21T02:13:27;20.80;68.40
24618;DHT22;12762;51.730;5.356;2023-08-21T02:15:54;20.70;68.50
24618;DHT22;12762;51.730;5.356;2023-08-21T02:18:21;20.70;68.30
24618;DHT22;12762;51.730;5.356;2023-08-21T02:20:48;20.70;68.80
24618;DHT22;12762;51.730;5.356;2023-08-21T02:23:16;20.70;69.00
24618;DHT22;12762;51.730;5.356;2023-08-21T02:25:42;20.60;68.90
24618;DHT22;12762;51.730;5.356;2023-08-21T02:28:09;20.60;69.10
24618;DHT22;12762;51.730;5.356;2023-08-21T02:30:40;20.60;69.40
24618;DHT22;12762;51.730;5.356;2023-08-21T02:33:09;20.60;70.00
24618;DHT22;12762;51.730;5.356;2023-08-21T02:35:39;20.60;70.40
24618;DHT22;12762;51.730;5.356;2023-08-21T02:38:08;20.70;70.30
24618;DHT22;12762;51.730;5.356;2023-08-21T02:40:36;20.60;69.50
24618;DHT22;12762;51.730;5.356;2023-08-21T02:43:03;20.60;70.10
24618;DHT22;12762;51.730;5.356;2023-08-21T02:45:30;20.60;70.40
24618;DHT22;12762;51.730;5.356;2023-08-21T02:47:57;20.60;70.20
24618;DHT22;12762;51.730;5.356;2023-08-21T02:50:24;20.60;70.20
24618;DHT22;12762;51.730;5.356;2023-08-21T02:52:50;20.60;70.50
24618;DHT22;12762;51.730;5.356;2023-08-21T02:55:17;20.60;71.00
24618;DHT22;12762;51.730;5.356;2023-08-21T02:57:44;20.50;70.90
24618;DHT22;12762;51.730;5.356;2023-08-21T03:00:11;20.50;71.00
24618;DHT22;12762;51.730;5.356;2023-08-21T03:02:38;20.50;70.70
24618;DHT22;12762;51.730;5.356;2023-08-21T03:05:10;20.40;70.70
24618;DHT22;12762;51.730;5.356;2023-08-21T03:07:37;20.40;70.80
24618;DHT22;12762;51.730;5.356;2023-08-21T03:10:05;20.40;71.00
24618;DHT22;12762;51.730;5.356;2023-08-21T03:12:33;20.30;71.10
24618;DHT22;12762;51.730;5.356;2023-08-21T03:15:00;20.30;71.40
24618;DHT22;12762;51.730;5.356;2023-08-21T03:17:27;20.30;71.50
24618;DHT22;12762;51.730;5.356;2023-08-21T03:19:53;20.30;72.00
24618;DHT22;12762;51.730;5.356;2023-08-21T03:22:20;20.30;72.00
24618;DHT22;12762;51.730;5.356;2023-08-21T03:24:47;20.30;72.10
24618;DHT22;12762;51.730;5.356;2023-08-21T03:27:18;20.30;71.90
24618;DHT22;12762;51.730;5.356;2023-08-21T03:29:50;20.30;72.00
24618;DHT22;12762;51.730;5.356;2023-08-21T03:32:17;20.30;72.30
24618;DHT22;12762;51.730;5.356;2023-08-21T03:34:44;20.30;72.60
24618;DHT22;12762;51.730;5.356;2023-08-21T03:37:11;20.30;72.60
24618;DHT22;12762;51.730;5.356;2023-08-21T03:39:38;20.30;73.60
24618;DHT22;12762;51.730;5.356;2023-08-21T03:42:05;20.30;72.90
24618;DHT22;12762;51.730;5.356;2023-08-21T03:44:32;20.20;73.10
24618;DHT22;12762;51.730;5.356;2023-08-21T03:47:00;20.20;73.00
24618;DHT22;12762;51.730;5.356;2023-08-21T03:49:33;20.10;72.70
24618;DHT22;12762;51.730;5.356;2023-08-21T03:52:00;20.10;72.60
24618;DHT22;12762;51.730;5.356;2023-08-21T03:54:26;20.10;72.60
24618;DHT22;12762;51.730;5.356;2023-08-21T03:56:53;20.00;72.80
24618;DHT22;12762;51.730;5.356;2023-08-21T03:59:20;20.00;73.00
24618;DHT22;12762;51.730;5.356;2023-08-21T04:01:47;19.90;72.60
24618;DHT22;12762;51.730;5.356;2023-08-21T04:04:13;19.90;72.60
24618;DHT22;12762;51.730;5.356;2023-08-21T04:06:40;19.90;73.00
24618;DHT22;12762;51.730;5.356;2023-08-21T04:09:07;19.80;73.10
24618;DHT22;12762;51.730;5.356;2023-08-21T04:11:34;19.80;72.80
24618;DHT22;12762;51.730;5.356;2023-08-21T04:14:02;19.80;72.80
24618;DHT22;12762;51.730;5.356;2023-08-21T04:16:31;19.80;73.20
24618;DHT22;12762;51.730;5.356;2023-08-21T04:18:59;19.80;73.40
24618;DHT22;12762;51.730;5.356;2023-08-21T04:21:26;19.70;73.30
24618;DHT22;12762;51.730;5.356;2023-08-21T04:23:52;19.70;73.70
24618;DHT22;12762;51.730;5.356;2023-08-21T04:26:20;19.70;73.90
24618;DHT22;12762;51.730;5.356;2023-08-21T04:28:46;19.70;74.10
24618;DHT22;12762;51.730;5.356;2023-08-21T04:31:13;19.70;73.70
24618;DHT22;12762;51.730;5.356;2023-08-21T04:33:43;19.60;73.90
24618;DHT22;12762;51.730;5.356;2023-08-21T04:36:16;19.60;74.00
24618;DHT22;12762;51.730;5.356;2023-08-21T04:38:43;19.60;74.20
24618;DHT22;12762;51.730;5.356;2023-08-21T04:41:10;19.60;74.10
24618;DHT22;12762;51.730;5.356;2023-08-21T04:43:37;19.60;74.00
24618;DHT22;12762;51.730;5.356;2023-08-21T04:46:04;19.50;74.00
24618;DHT22;12762;51.730;5.356;2023-08-21T04:48:32;19.50;74.10
24618;DHT22;12762;51.730;5.356;2023-08-21T04:50:59;19.50;74.10
24618;DHT22;12762;51.730;5.356;2023-08-21T04:53:26;19.50;74.20
24618;DHT22;12762;51.730;5.356;2023-08-21T04:55:52;19.50;74.50
24618;DHT22;12762;51.730;5.356;2023-08-21T04:58:26;19.50;74.80
24618;DHT22;12762;51.730;5.356;2023-08-21T05:00:53;19.60;74.90
24618;DHT22;12762;51.730;5.356;2023-08-21T05:03:20;19.50;74.90
24618;DHT22;12762;51.730;5.356;2023-08-21T05:05:54;19.50;75.10
24618;DHT22;12762;51.730;5.356;2023-08-21T05:08:22;19.60;75.40
24618;DHT22;12762;51.730;5.356;2023-08-21T05:10:58;19.60;76.30
24618;DHT22;12762;51.730;5.356;2023-08-21T05:13:28;19.60;75.80
24618;DHT22;12762;51.730;5.356;2023-08-21T05:15:58;19.60;75.80
24618;DHT22;12762;51.730;5.356;2023-08-21T05:18:25;19.70;76.30
24618;DHT22;12762;51.730;5.356;2023-08-21T05:20:54;19.70;76.10
24618;DHT22;12762;51.730;5.356;2023-08-21T05:23:21;19.80;76.40
24618;DHT22;12762;51.730;5.356;2023-08-21T05:25:48;19.80;76.40
24618;DHT22;12762;51.730;5.356;2023-08-21T05:28:15;19.80;76.50
24618;DHT22;12762;51.730;5.356;2023-08-21T05:30:42;19.90;76.60
24618;DHT22;12762;51.730;5.356;2023-08-21T05:33:09;20.00;76.60
24618;DHT22;12762;51.730;5.356;2023-08-21T05:35:37;20.00;76.50
24618;DHT22;12762;51.730;5.356;2023-08-21T05:38:04;20.10;76.70
24618;DHT22;12762;51.730;5.356;2023-08-21T05:40:31;20.10;76.90
24618;DHT22;12762;51.730;5.356;2023-08-21T05:42:58;20.20;77.10
24618;DHT22;12762;51.730;5.356;2023-08-21T05:45:25;20.20;77.20
24618;DHT22;12762;51.730;5.356;2023-08-21T05:47:55;20.30;77.40
24618;DHT22;12762;51.730;5.356;2023-08-21T05:50:22;20.30;77.60
24618;DHT22;12762;51.730;5.356;2023-08-21T05:52:51;20.40;77.70
24618;DHT22;12762;51.730;5.356;2023-08-21T05:55:20;20.40;77.80
24618;DHT22;12762;51.730;5.356;2023-08-21T05:57:47;20.50;77.90
24618;DHT22;12762;51.730;5.356;2023-08-21T06:00:15;20.60;78.00
24618;DHT22;12762;51.730;5.356;2023-08-21T06:02:42;20.60;78.00
24618;DHT22;12762;51.730;5.356;2023-08-21T06:05:09;20.70;78.00
24618;DHT22;12762;51.730;5.356;2023-08-21T06:07:39;20.70;78.00
24618;DHT22;12762;51.730;5.356;2023-08-21T06:10:10;20.80;78.00
24618;DHT22;12762;51.730;5.356;2023-08-21T06:12:42;20.90;77.80
24618;DHT22;12762;51.730;5.356;2023-08-21T06:15:10;21.00;77.80
24618;DHT22;12762;51.730;5.356;2023-08-21T06:17:37;21.00;77.50
24618;DHT22;12762;51.730;5.356;2023-08-21T06:20:05;21.10;77.50
24618;DHT22;12762;51.730;5.356;2023-08-21T06:22:35;21.20;77.50
24618;DHT22;12762;51.730;5.356;2023-08-21T06:25:04;21.30;77.30
24618;DHT22;12762;51.730;5.356;2023-08-21T06:27:31;21.40;77.20
24618;DHT22;12762;51.730;5.356;2023-08-21T06:30:10;21.50;77.00
24618;DHT22;12762;51.730;5.356;2023-08-21T06:32:37;21.60;76.90
24618;DHT22;12762;51.730;5.356;2023-08-21T06:35:07;21.60;76.70
24618;DHT22;12762;51.730;5.356;2023-08-21T06:37:34;21.70;76.50
24618;DHT22;12762;51.730;5.356;2023-08-21T06:40:01;21.80;76.10
24618;DHT22;12762;51.730;5.356;2023-08-21T06:42:34;21.80;76.10
24618;DHT22;12762;51.730;5.356;2023-08-21T06:45:01;21.80;76.00
24618;DHT22;12762;51.730;5.356;2023-08-21T06:47:30;21.90;76.10
24618;DHT22;12762;51.730;5.356;2023-08-21T06:49:57;21.90;76.00
24618;DHT22;12762;51.730;5.356;2023-08-21T06:52:24;21.90;75.90
24618;DHT22;12762;51.730;5.356;2023-08-21T06:54:50;21.90;75.80
24618;DHT22;12762;51.730;5.356;2023-08-21T06:57:17;22.00;75.90
24618;DHT22;12762;51.730;5.356;2023-08-21T06:59:44;22.00;75.80
24618;DHT22;12762;51.730;5.356;2023-08-21T07:02:11;22.00;75.60
24618;DHT22;12762;51.730;5.356;2023-08-21T07:04:37;22.00;75.60
24618;DHT22;12762;51.730;5.356;2023-08-21T07:07:04;22.10;75.70
24618;DHT22;12762;51.730;5.356;2023-08-21T07:09:31;22.10;75.70
24618;DHT22;12762;51.730;5.356;2023-08-21T07:11:58;22.20;75.40
24618;DHT22;12762;51.730;5.356;2023-08-21T07:14:25;22.20;75.00
24618;DHT22;12762;51.730;5.356;2023-08-21T07:16:54;22.30;74.60
24618;DHT22;12762;51.730;5.356;2023-08-21T07:19:21;22.40;74.80
24618;DHT22;12762;51.730;5.356;2023-08-21T07:21:48;22.90;75.50
24618;DHT22;12762;51.730;5.356;2023-08-21T07:24:17;23.90;75.10
24618;DHT22;12762;51.730;5.356;2023-08-21T07:26:44;24.90;73.00
24618;DHT22;12762;51.730;5.356;2023-08-21T07:29:11;25.70;71.30
24618;DHT22;12762;51.730;5.356;2023-08-21T07:31:38;26.40;70.00
24618;DHT22;12762;51.730;5.356;2023-08-21T07:34:08;27.20;69.00
24618;DHT22;12762;51.730;5.356;2023-08-21T07:36:35;28.00;67.20
24618;DHT22;12762;51.730;5.356;2023-08-21T07:39:02;28.30;65.20
24618;DHT22;12762;51.730;5.356;2023-08-21T07:41:29;28.20;63.50
24618;DHT22;12762;51.730;5.356;2023-08-21T07:43:56;28.10;62.90
24618;DHT22;12762;51.730;5.356;2023-08-21T07:46:23;27.80;62.10
24618;DHT22;12762;51.730;5.356;2023-08-21T07:48:50;27.50;62.10
24618;DHT22;12762;51.730;5.356;2023-08-21T07:51:17;27.50;62.90
24618;DHT22;12762;51.730;5.356;2023-08-21T07:53:44;27.60;63.40
24618;DHT22;12762;51.730;5.356;2023-08-21T07:56:11;27.70;63.20
24618;DHT22;12762;51.730;5.356;2023-08-21T07:58:38;27.70;63.40
24618;DHT22;12762;51.730;5.356;2023-08-21T08:01:05;27.60;63.40
24618;DHT22;12762;51.730;5.356;2023-08-21T08:03:34;27.60;63.60
24618;DHT22;12762;51.730;5.356;2023-08-21T08:06:04;27.70;63.30
24618;DHT22;12762;51.730;5.356;2023-08-21T08:08:34;27.60;63.30
24618;DHT22;12762;51.730;5.356;2023-08-21T08:11:03;27.50;62.00
24618;DHT22;12762;51.730;5.356;2023-08-21T08:13:34;27.30;61.60
24618;DHT22;12762;51.730;5.356;2023-08-21T08:16:01;27.30;63.10
24618;DHT22;12762;51.730;5.356;2023-08-21T08:18:28;27.50;62.50
24618;DHT22;12762;51.730;5.356;2023-08-21T08:20:56;27.60;61.40
24618;DHT22;12762;51.730;5.356;2023-08-21T08:23:23;27.60;61.90
24618;DHT22;12762;51.730;5.356;2023-08-21T08:25:50;27.50;60.70
24618;DHT22;12762;51.730;5.356;2023-08-21T08:28:17;27.60;60.60
24618;DHT22;12762;51.730;5.356;2023-08-21T08:30:45;27.70;60.70
24618;DHT22;12762;51.730;5.356;2023-08-21T08:33:12;27.80;60.80
24618;DHT22;12762;51.730;5.356;2023-08-21T08:35:39;28.00;60.10
24618;DHT22;12762;51.730;5.356;2023-08-21T08:38:08;28.10;59.60
24618;DHT22;12762;51.730;5.356;2023-08-21T08:40:41;28.20;60.00
24618;DHT22;12762;51.730;5.356;2023-08-21T08:43:10;28.30;60.20
24618;DHT22;12762;51.730;5.356;2023-08-21T08:45:40;28.50;60.20
24618;DHT22;12762;51.730;5.356;2023-08-21T08:48:07;28.80;60.30
24618;DHT22;12762;51.730;5.356;2023-08-21T08:50:35;29.20;60.30
24618;DHT22;12762;51.730;5.356;2023-08-21T08:53:04;29.50;58.60
24618;DHT22;12762;51.730;5.356;2023-08-21T08:55:42;29.80;58.70
24618;DHT22;12762;51.730;5.356;2023-08-21T08:58:12;30.20;58.40
24618;DHT22;12762;51.730;5.356;2023-08-21T09:00:42;30.50;57.60
24618;DHT22;12762;51.730;5.356;2023-08-21T09:03:09;30.70;56.70
24618;DHT22;12762;51.730;5.356;2023-08-21T09:05:38;30.90;56.50
24618;DHT22;12762;51.730;5.356;2023-08-21T09:10:37;31.10;55.30
24618;DHT22;12762;51.730;5.356;2023-08-21T09:13:12;31.20;55.80
24618;DHT22;12762;51.730;5.356;2023-08-21T09:15:42;31.20;54.30
24618;DHT22;12762;51.730;5.356;2023-08-21T09:18:10;31.20;54.10
24618;DHT22;12762;51.730;5.356;2023-08-21T09:20:38;31.00;53.50
24618;DHT22;12762;51.730;5.356;2023-08-21T09:23:04;30.80;54.20
24618;DHT22;12762;51.730;5.356;2023-08-21T09:25:41;30.80;54.50
24618;DHT22;12762;51.730;5.356;2023-08-21T09:28:11;30.90;54.10
24618;DHT22;12762;51.730;5.356;2023-08-21T09:33:19;30.60;54.40
24618;DHT22;12762;51.730;5.356;2023-08-21T09:35:48;30.50;54.50
24618;DHT22;12762;51.730;5.356;2023-08-21T09:38:15;30.50;54.40
24618;DHT22;12762;51.730;5.356;2023-08-21T09:40:43;30.70;53.60
24618;DHT22;12762;51.730;5.356;2023-08-21T09:43:11;30.80;53.50
24618;DHT22;12762;51.730;5.356;2023-08-21T09:45:38;31.10;52.90
24618;DHT22;12762;51.730;5.356;2023-08-21T09:48:06;31.30;52.20
24618;DHT22;12762;51.730;5.356;2023-08-21T09:50:34;31.50;52.70
24618;DHT22;12762;51.730;5.356;2023-08-21T09:53:08;31.70;52.50
24618;DHT22;12762;51.730;5.356;2023-08-21T09:55:38;31.80;52.10
24618;DHT22;12762;51.730;5.356;2023-08-21T09:58:06;32.10;51.10
24618;DHT22;12762;51.730;5.356;2023-08-21T10:00:36;32.10;52.00
24618;DHT22;12762;51.730;5.356;2023-08-21T10:03:08;32.30;51.40
24618;DHT22;12762;51.730;5.356;2023-08-21T10:05:38;32.40;50.20
24618;DHT22;12762;51.730;5.356;2023-08-21T10:08:06;32.40;51.20
24618;DHT22;12762;51.730;5.356;2023-08-21T10:10:36;32.60;51.50
24618;DHT22;12762;51.730;5.356;2023-08-21T10:13:04;32.90;51.40
24618;DHT22;12762;51.730;5.356;2023-08-21T10:15:32;33.10;50.80
24618;DHT22;12762;51.730;5.356;2023-08-21T10:18:18;33.20;51.10
24618;DHT22;12762;51.730;5.356;2023-08-21T10:20:46;33.10;51.10
24618;DHT22;12762;51.730;5.356;2023-08-21T10:23:29;33.00;51.30
24618;DHT22;12762;51.730;5.356;2023-08-21T10:26:02;32.80;51.10
24618;DHT22;12762;51.730;5.356;2023-08-21T10:28:53;32.40;50.20
24618;DHT22;12762;51.730;5.356;2023-08-21T10:33:57;31.50;52.30
24618;DHT22;12762;51.730;5.356;2023-08-21T10:39:26;31.30;50.90
24618;DHT22;12762;51.730;5.356;2023-08-21T10:42:00;31.20;50.90
24618;DHT22;12762;51.730;5.356;2023-08-21T10:47:22;31.30;50.80
24618;DHT22;12762;51.730;5.356;2023-08-21T10:49:54;31.40;50.80
24618;DHT22;12762;51.730;5.356;2023-08-21T10:54:53;31.20;49.30
24618;DHT22;12762;51.730;5.356;2023-08-21T10:57:21;31.10;50.00
24618;DHT22;12762;51.730;5.356;2023-08-21T10:59:52;31.00;50.30
24618;DHT22;12762;51.730;5.356;2023-08-21T11:02:19;31.20;50.60
24618;DHT22;12762;51.730;5.356;2023-08-21T11:04:46;31.50;50.30
24618;DHT22;12762;51.730;5.356;2023-08-21T11:07:14;31.80;48.50
24618;DHT22;12762;51.730;5.356;2023-08-21T11:09:44;32.10;47.70
24618;DHT22;12762;51.730;5.356;2023-08-21T11:12:13;32.20;47.70
24618;DHT22;12762;51.730;5.356;2023-08-21T11:14:40;32.30;47.30
24618;DHT22;12762;51.730;5.356;2023-08-21T11:17:08;32.20;47.50
24618;DHT22;12762;51.730;5.356;2023-08-21T11:19:36;32.30;46.90
24618;DHT22;12762;51.730;5.356;2023-08-21T11:22:04;32.30;46.30
24618;DHT22;12762;51.730;5.356;2023-08-21T11:24:42;32.30;47.60
24618;DHT22;12762;51.730;5.356;2023-08-21T11:27:11;32.50;48.60
24618;DHT22;12762;51.730;5.356;2023-08-21T11:29:40;32.70;47.00
24618;DHT22;12762;51.730;5.356;2023-08-21T11:32:18;32.80;45.30
24618;DHT22;12762;51.730;5.356;2023-08-21T11:34:56;32.80;45.20
24618;DHT22;12762;51.730;5.356;2023-08-21T11:37:27;32.80;47.20
24618;DHT22;12762;51.730;5.356;2023-08-21T11:39:56;33.00;46.60
24618;DHT22;12762;51.730;5.356;2023-08-21T11:42:29;33.10;46.10
24618;DHT22;12762;51.730;5.356;2023-08-21T11:44:57;33.10;46.20
24618;DHT22;12762;51.730;5.356;2023-08-21T11:47:36;33.00;45.50
24618;DHT22;12762;51.730;5.356;2023-08-21T11:50:07;32.90;44.50
24618;DHT22;12762;51.730;5.356;2023-08-21T11:52:37;32.80;44.80
24618;DHT22;12762;51.730;5.356;2023-08-21T11:55:09;32.90;45.60
24618;DHT22;12762;51.730;5.356;2023-08-21T11:57:49;33.20;44.80
24618;DHT22;12762;51.730;5.356;2023-08-21T12:00:17;33.30;45.20
24618;DHT22;12762;51.730;5.356;2023-08-21T12:02:56;33.40;44.70
24618;DHT22;12762;51.730;5.356;2023-08-21T12:05:24;33.60;44.20
24618;DHT22;12762;51.730;5.356;2023-08-21T12:07:50;33.60;44.40
24618;DHT22;12762;51.730;5.356;2023-08-21T12:10:28;33.40;44.20
24618;DHT22;12762;51.730;5.356;2023-08-21T12:12:55;33.40;44.30
24618;DHT22;12762;51.730;5.356;2023-08-21T12:15:22;33.30;43.80
24618;DHT22;12762;51.730;5.356;2023-08-21T12:17:49;33.10;44.10
24618;DHT22;12762;51.730;5.356;2023-08-21T12:20:19;33.20;44.50
24618;DHT22;12762;51.730;5.356;2023-08-21T12:22:46;33.30;44.60
24618;DHT22;12762;51.730;5.356;2023-08-21T12:25:13;33.40;43.30
24618;DHT22;12762;51.730;5.356;2023-08-21T12:27:43;33.30;43.30
24618;DHT22;12762;51.730;5.356;2023-08-21T12:30:12;33.30;43.90
24618;DHT22;12762;51.730;5.356;2023-08-21T12:32:42;33.30;45.30
24618;DHT22;12762;51.730;5.356;2023-08-21T12:35:09;33.50;44.10
24618;DHT22;12762;51.730;5.356;2023-08-21T12:37:41;33.60;44.30
24618;DHT22;12762;51.730;5.356;2023-08-21T12:40:08;33.70;44.10
24618;DHT22;12762;51.730;5.356;2023-08-21T12:42:35;33.90;44.30
24618;DHT22;12762;51.730;5.356;2023-08-21T12:45:03;34.00;43.90
24618;DHT22;12762;51.730;5.356;2023-08-21T12:47:30;34.20;43.70
24618;DHT22;12762;51.730;5.356;2023-08-21T12:49:56;34.30;43.40
24618;DHT22;12762;51.730;5.356;2023-08-21T12:52:23;34.50;44.00
24618;DHT22;12762;51.730;5.356;2023-08-21T12:54:50;34.60;42.20
24618;DHT22;12762;51.730;5.356;2023-08-21T12:57:17;34.50;41.50
24618;DHT22;12762;51.730;5.356;2023-08-21T12:59:44;34.50;41.90
24618;DHT22;12762;51.730;5.356;2023-08-21T13:02:12;34.60;42.40
24618;DHT22;12762;51.730;5.356;2023-08-21T13:04:39;34.60;42.00
24618;DHT22;12762;51.730;5.356;2023-08-21T13:07:06;34.40;42.20
24618;DHT22;12762;51.730;5.356;2023-08-21T13:09:32;34.30;42.70
24618;DHT22;12762;51.730;5.356;2023-08-21T13:12:00;34.30;41.70
24618;DHT22;12762;51.730;5.356;2023-08-21T13:14:27;34.20;41.00
24618;DHT22;12762;51.730;5.356;2023-08-21T13:16:57;34.10;41.80
24618;DHT22;12762;51.730;5.356;2023-08-21T13:19:24;34.10;42.30
24618;DHT22;12762;51.730;5.356;2023-08-21T13:21:51;34.20;42.70
24618;DHT22;12762;51.730;5.356;2023-08-21T13:24:18;34.30;41.70
24618;DHT22;12762;51.730;5.356;2023-08-21T13:26:45;34.40;41.20
24618;DHT22;12762;51.730;5.356;2023-08-21T13:29:12;34.30;40.40
24618;DHT22;12762;51.730;5.356;2023-08-21T13:31:39;34.20;41.70
24618;DHT22;12762;51.730;5.356;2023-08-21T13:34:06;34.30;41.30
24618;DHT22;12762;51.730;5.356;2023-08-21T13:36:35;34.50;40.90
24618;DHT22;12762;51.730;5.356;2023-08-21T13:39:05;34.60;41.70
24618;DHT22;12762;51.730;5.356;2023-08-21T13:41:33;34.70;41.40
24618;DHT22;12762;51.730;5.356;2023-08-21T13:44:02;34.70;39.90
24618;DHT22;12762;51.730;5.356;2023-08-21T13:46:29;34.40;39.90
24618;DHT22;12762;51.730;5.356;2023-08-21T13:48:56;34.20;41.00
24618;DHT22;12762;51.730;5.356;2023-08-21T13:51:23;34.20;41.30
24618;DHT22;12762;51.730;5.356;2023-08-21T13:53:50;34.30;40.90
24618;DHT22;12762;51.730;5.356;2023-08-21T13:56:17;34.30;41.40
24618;DHT22;12762;51.730;5.356;2023-08-21T13:58:44;34.40;40.60
24618;DHT22;12762;51.730;5.356;2023-08-21T14:01:11;34.40;40.70
24618;DHT22;12762;51.730;5.356;2023-08-21T14:03:38;34.50;41.10
24618;DHT22;12762;51.730;5.356;2023-08-21T14:06:05;34.50;40.40
24618;DHT22;12762;51.730;5.356;2023-08-21T14:08:32;34.50;40.10
24618;DHT22;12762;51.730;5.356;2023-08-21T14:10:59;34.50;40.20
24618;DHT22;12762;51.730;5.356;2023-08-21T14:13:26;34.50;39.60
24618;DHT22;12762;51.730;5.356;2023-08-21T14:15:53;34.30;38.90
24618;DHT22;12762;51.730;5.356;2023-08-21T14:18:20;34.10;39.00
24618;DHT22;12762;51.730;5.356;2023-08-21T14:20:47;34.00;39.00
24618;DHT22;12762;51.730;5.356;2023-08-21T14:23:14;34.00;40.30
24618;DHT22;12762;51.730;5.356;2023-08-21T14:25:43;34.20;40.50
24618;DHT22;12762;51.730;5.356;2023-08-21T14:28:10;34.30;39.10
24618;DHT22;12762;51.730;5.356;2023-08-21T14:30:41;34.30;38.20
24618;DHT22;12762;51.730;5.356;2023-08-21T14:33:08;34.10;38.20
24618;DHT22;12762;51.730;5.356;2023-08-21T14:35:34;34.10;38.80
24618;DHT22;12762;51.730;5.356;2023-08-21T14:38:01;34.10;38.70
24618;DHT22;12762;51.730;5.356;2023-08-21T14:40:28;34.00;38.90
24618;DHT22;12762;51.730;5.356;2023-08-21T14:42:55;34.10;38.80
24618;DHT22;12762;51.730;5.356;2023-08-21T14:45:22;34.10;38.50
24618;DHT22;12762;51.730;5.356;2023-08-21T14:47:48;34.10;38.40
24618;DHT22;12762;51.730;5.356;2023-08-21T14:50:15;34.00;38.30
24618;DHT22;12762;51.730;5.356;2023-08-21T14:52:42;33.90;37.80
24618;DHT22;12762;51.730;5.356;2023-08-21T14:55:14;33.90;38.60
24618;DHT22;12762;51.730;5.356;2023-08-21T14:57:41;33.80;39.00
24618;DHT22;12762;51.730;5.356;2023-08-21T15:00:08;33.80;39.70
24618;DHT22;12762;51.730;5.356;2023-08-21T15:02:36;33.90;39.40
24618;DHT22;12762;51.730;5.356;2023-08-21T15:05:04;33.80;39.20
24618;DHT22;12762;51.730;5.356;2023-08-21T15:07:35;33.70;38.90
24618;DHT22;12762;51.730;5.356;2023-08-21T15:10:03;33.60;38.70
24618;DHT22;12762;51.730;5.356;2023-08-21T15:12:30;33.50;39.30
24618;DHT22;12762;51.730;5.356;2023-08-21T15:14:57;33.40;39.20
24618;DHT22;12762;51.730;5.356;2023-08-21T15:17:24;33.40;39.00
24618;DHT22;12762;51.730;5.356;2023-08-21T15:19:50;33.30;39.00
24618;DHT22;12762;51.730;5.356;2023-08-21T15:22:18;33.30;38.70
24618;DHT22;12762;51.730;5.356;2023-08-21T15:24:44;33.30;38.40
24618;DHT22;12762;51.730;5.356;2023-08-21T15:27:11;33.30;38.40
24618;DHT22;12762;51.730;5.356;2023-08-21T15:29:40;33.30;38.50
24618;DHT22;12762;51.730;5.356;2023-08-21T15:32:07;33.20;38.80
24618;DHT22;12762;51.730;5.356;2023-08-21T15:34:34;33.20;39.00
24618;DHT22;12762;51.730;5.356;2023-08-21T15:37:00;33.10;38.30
24618;DHT22;12762;51.730;5.356;2023-08-21T15:39:27;33.00;38.40
24618;DHT22;12762;51.730;5.356;2023-08-21T15:41:54;32.80;38.10
24618;DHT22;12762;51.730;5.356;2023-08-21T15:44:21;32.70;38.00
24618;DHT22;12762;51.730;5.356;2023-08-21T15:46:49;32.50;37.70
24618;DHT22;12762;51.730;5.356;2023-08-21T15:49:31;32.50;38.30
24618;DHT22;12762;51.730;5.356;2023-08-21T15:52:00;32.50;37.70
24618;DHT22;12762;51.730;5.356;2023-08-21T15:54:32;32.40;38.00
24618;DHT22;12762;51.730;5.356;2023-08-21T15:57:02;32.30;37.90